sensor_id;sensor_type;location;lat;lon;timestamp;temperature;humidity
65122;HTU21D;51701;45.036;38.924;2022-08-20T10:40:22;29.05;63.95
65122;HTU21D;51701;45.036;38.924;2022-08-20T10:42:47;29.07;63.65
65122;HTU21D;51701;45.036;38.924;2022-08-20T10:45:14;29.11;64.01
65122;HTU21D;51701;45.036;38.924;2022-08-20T10:47:40;29.21;64.08
65122;HTU21D;51701;45.036;38.924;2022-08-20T10:50:08;29.37;63.32
65122;HTU21D;51701;45.036;38.924;2022-08-20T10:52:33;29.52;62.68
65122;HTU21D;51701;45.036;38.924;2022-08-20T10:54:59;29.53;61.83
65122;HTU21D;51701;45.036;38.924;2022-08-20T10:57:26;29.50;62.73
65122;HTU21D;51701;45.036;38.924;2022-08-20T10:59:53;29.47;61.95
65122;HTU21D;51701;45.036;38.924;2022-08-20T11:02:19;29.45;63.50
65122;HTU21D;51701;45.036;38.924;2022-08-20T11:04:45;29.46;64.07
65122;HTU21D;51701;45.036;38.924;2022-08-20T11:09:40;29.72;63.49
65122;HTU21D;51701;45.036;38.924;2022-08-20T11:12:06;29.80;63.34
65122;HTU21D;51701;45.036;38.924;2022-08-20T11:14:31;29.90;63.11
65122;HTU21D;51701;45.036;38.924;2022-08-20T11:16:58;29.89;63.28
65122;HTU21D;51701;45.036;38.924;2022-08-20T11:19:24;29.85;63.89
65122;HTU21D;51701;45.036;38.924;2022-08-20T11:21:50;29.95;63.42
65122;HTU21D;51701;45.036;38.924;2022-08-20T11:24:16;30.03;62.24
65122;HTU21D;51701;45.036;38.924;2022-08-20T11:26:47;29.98;62.28
65122;HTU21D;51701;45.036;38.924;2022-08-20T11:29:13;29.95;62.19
65122;HTU21D;51701;45.036;38.924;2022-08-20T11:31:39;29.92;62.85
65122;HTU21D;51701;45.036;38.924;2022-08-20T11:34:05;29.90;63.17
65122;HTU21D;51701;45.036;38.924;2022-08-20T11:36:31;29.94;60.78
65122;HTU21D;51701;45.036;38.924;2022-08-20T11:38:57;30.00;60.70
65122;HTU21D;51701;45.036;38.924;2022-08-20T11:41:23;30.02;59.61
65122;HTU21D;51701;45.036;38.924;2022-08-20T11:43:48;30.16;60.44
65122;HTU21D;51701;45.036;38.924;2022-08-20T11:46:14;30.30;61.20
65122;HTU21D;51701;45.036;38.924;2022-08-20T11:48:40;30.28;60.84
65122;HTU21D;51701;45.036;38.924;2022-08-20T11:51:05;30.28;61.11
65122;HTU21D;51701;45.036;38.924;2022-08-20T11:53:31;30.31;60.71
65122;HTU21D;51701;45.036;38.924;2022-08-20T11:55:57;30.38;59.55
65122;HTU21D;51701;45.036;38.924;2022-08-20T11:58:23;30.50;59.59
65122;HTU21D;51701;45.036;38.924;2022-08-20T12:00:49;30.54;60.14
65122;HTU21D;51701;45.036;38.924;2022-08-20T12:03:15;30.55;58.65
65122;HTU21D;51701;45.036;38.924;2022-08-20T12:05:42;30.51;59.74
65122;HTU21D;51701;45.036;38.924;2022-08-20T12:08:08;30.55;59.30
65122;HTU21D;51701;45.036;38.924;2022-08-20T12:10:34;30.55;57.16
65122;HTU21D;51701;45.036;38.924;2022-08-20T12:13:00;30.50;57.30
65122;HTU21D;51701;45.036;38.924;2022-08-20T12:15:26;30.50;56.42
65122;HTU21D;51701;45.036;38.924;2022-08-20T12:17:52;30.49;56.48
65122;HTU21D;51701;45.036;38.924;2022-08-20T12:20:18;30.49;57.08
65122;HTU21D;51701;45.036;38.924;2022-08-20T12:22:44;30.55;56.47
65122;HTU21D;51701;45.036;38.924;2022-08-20T12:25:10;30.64;56.72
65122;HTU21D;51701;45.036;38.924;2022-08-20T12:27:36;30.76;56.37
65122;HTU21D;51701;45.036;38.924;2022-08-20T12:30:07;30.85;55.70
65122;HTU21D;51701;45.036;38.924;2022-08-20T12:32:34;30.83;55.90
65122;HTU21D;51701;45.036;38.924;2022-08-20T12:35:00;30.80;54.81
65122;HTU21D;51701;45.036;38.924;2022-08-20T12:37:26;30.80;54.83
65122;HTU21D;51701;45.036;38.924;2022-08-20T12:39:53;30.85;54.58
65122;HTU21D;51701;45.036;38.924;2022-08-20T12:42:20;30.92;54.61
65122;HTU21D;51701;45.036;38.924;2022-08-20T12:44:46;31.00;53.95
65122;HTU21D;51701;45.036;38.924;2022-08-20T12:47:22;31.00;53.97
65122;HTU21D;51701;45.036;38.924;2022-08-20T12:49:50;30.91;54.46
65122;HTU21D;51701;45.036;38.924;2022-08-20T12:52:16;30.80;55.59
65122;HTU21D;51701;45.036;38.924;2022-08-20T12:54:43;30.76;55.63
65122;HTU21D;51701;45.036;38.924;2022-08-20T12:57:42;30.75;55.84
65122;HTU21D;51701;45.036;38.924;2022-08-20T13:00:05;30.66;55.56
65122;HTU21D;51701;45.036;38.924;2022-08-20T13:02:31;30.59;54.78
65122;HTU21D;51701;45.036;38.924;2022-08-20T13:04:57;30.51;55.39
65122;HTU21D;51701;45.036;38.924;2022-08-20T13:07:23;30.52;56.44
65122;HTU21D;51701;45.036;38.924;2022-08-20T13:09:49;30.54;56.07
65122;HTU21D;51701;45.036;38.924;2022-08-20T13:12:14;30.57;56.90
65122;HTU21D;51701;45.036;38.924;2022-08-20T13:14:41;30.67;56.98
65122;HTU21D;51701;45.036;38.924;2022-08-20T13:17:07;30.61;57.57
65122;HTU21D;51701;45.036;38.924;2022-08-20T13:19:34;30.48;57.53
65122;HTU21D;51701;45.036;38.924;2022-08-20T13:22:00;30.42;57.76
65122;HTU21D;51701;45.036;38.924;2022-08-20T13:24:26;30.34;57.74
65122;HTU21D;51701;45.036;38.924;2022-08-20T13:26:52;30.25;58.30
65122;HTU21D;51701;45.036;38.924;2022-08-20T13:29:19;30.17;58.88
65122;HTU21D;51701;45.036;38.924;2022-08-20T13:31:45;30.11;58.99
65122;HTU21D;51701;45.036;38.924;2022-08-20T13:34:11;30.06;59.05
65122;HTU21D;51701;45.036;38.924;2022-08-20T13:36:37;30.06;59.03
65122;HTU21D;51701;45.036;38.924;2022-08-20T13:39:04;30.05;59.08
65122;HTU21D;51701;45.036;38.924;2022-08-20T13:41:30;30.05;58.64
65122;HTU21D;51701;45.036;38.924;2022-08-20T13:43:56;30.02;58.79
65122;HTU21D;51701;45.036;38.924;2022-08-20T13:46:21;30.01;58.79
65122;HTU21D;51701;45.036;38.924;2022-08-20T13:48:47;30.01;58.68
65122;HTU21D;51701;45.036;38.924;2022-08-20T13:51:13;29.95;58.92
65122;HTU21D;51701;45.036;38.924;2022-08-20T13:53:39;29.91;59.60
65122;HTU21D;51701;45.036;38.924;2022-08-20T13:56:04;29.93;58.62
65122;HTU21D;51701;45.036;38.924;2022-08-20T13:58:30;29.96;58.88
65122;HTU21D;51701;45.036;38.924;2022-08-20T14:00:56;29.96;59.13
65122;HTU21D;51701;45.036;38.924;2022-08-20T14:03:22;30.00;58.90
65122;HTU21D;51701;45.036;38.924;2022-08-20T14:05:47;29.98;57.71
65122;HTU21D;51701;45.036;38.924;2022-08-20T14:08:17;29.93;57.75
65122;HTU21D;51701;45.036;38.924;2022-08-20T14:10:44;29.89;57.79
65122;HTU21D;51701;45.036;38.924;2022-08-20T14:13:11;29.82;58.26
65122;HTU21D;51701;45.036;38.924;2022-08-20T14:15:36;29.82;58.21
65122;HTU21D;51701;45.036;38.924;2022-08-20T14:18:02;29.83;58.73
65122;HTU21D;51701;45.036;38.924;2022-08-20T14:20:29;29.82;58.77
65122;HTU21D;51701;45.036;38.924;2022-08-20T14:22:56;29.82;59.25
65122;HTU21D;51701;45.036;38.924;2022-08-20T14:25:22;29.77;59.21
65122;HTU21D;51701;45.036;38.924;2022-08-20T14:27:48;29.83;59.44
65122;HTU21D;51701;45.036;38.924;2022-08-20T14:30:16;29.78;59.65
65122;HTU21D;51701;45.036;38.924;2022-08-20T14:32:44;29.71;59.70
65122;HTU21D;51701;45.036;38.924;2022-08-20T14:35:10;29.72;59.83
65122;HTU21D;51701;45.036;38.924;2022-08-20T14:37:37;29.72;60.31
65122;HTU21D;51701;45.036;38.924;2022-08-20T14:40:08;29.64;60.42
65122;HTU21D;51701;45.036;38.924;2022-08-20T14:42:34;29.57;60.76
65122;HTU21D;51701;45.036;38.924;2022-08-20T14:45:00;29.44;61.02
65122;HTU21D;51701;45.036;38.924;2022-08-20T14:47:34;29.35;61.60
65122;HTU21D;51701;45.036;38.924;2022-08-20T14:50:03;29.24;62.08
65122;HTU21D;51701;45.036;38.924;2022-08-20T14:52:29;29.22;62.24
65122;HTU21D;51701;45.036;38.924;2022-08-20T14:54:57;29.15;61.41
65122;HTU21D;51701;45.036;38.924;2022-08-20T14:57:23;29.08;61.70
65122;HTU21D;51701;45.036;38.924;2022-08-20T14:59:50;29.02;62.12
65122;HTU21D;51701;45.036;38.924;2022-08-20T15:02:17;28.93;62.23
65122;HTU21D;51701;45.036;38.924;2022-08-20T15:04:43;28.80;62.79
65122;HTU21D;51701;45.036;38.924;2022-08-20T15:07:23;28.75;62.97
65122;HTU21D;51701;45.036;38.924;2022-08-20T15:09:49;28.75;63.03
65122;HTU21D;51701;45.036;38.924;2022-08-20T15:12:15;28.78;63.02
65122;HTU21D;51701;45.036;38.924;2022-08-20T15:14:41;28.76;63.02
65122;HTU21D;51701;45.036;38.924;2022-08-20T15:17:08;28.74;63.08
65122;HTU21D;51701;45.036;38.924;2022-08-20T15:19:34;28.78;62.94
65122;HTU21D;51701;45.036;38.924;2022-08-20T15:22:00;28.75;63.10
65122;HTU21D;51701;45.036;38.924;2022-08-20T15:24:26;28.67;63.60
65122;HTU21D;51701;45.036;38.924;2022-08-20T15:26:51;28.63;63.95
65122;HTU21D;51701;45.036;38.924;2022-08-20T15:29:17;28.55;63.88
65122;HTU21D;51701;45.036;38.924;2022-08-20T15:31:43;28.41;65.06
65122;HTU21D;51701;45.036;38.924;2022-08-20T15:34:09;27.34;68.90
65122;HTU21D;51701;45.036;38.924;2022-08-20T15:36:34;26.22;72.90
65122;HTU21D;51701;45.036;38.924;2022-08-20T15:39:00;25.79;77.42
65122;HTU21D;51701;45.036;38.924;2022-08-20T15:41:26;25.79;76.97
65122;HTU21D;51701;45.036;38.924;2022-08-20T15:43:55;26.11;75.19
65122;HTU21D;51701;45.036;38.924;2022-08-20T15:46:20;26.38;75.03
65122;HTU21D;51701;45.036;38.924;2022-08-20T15:48:46;26.64;72.90
65122;HTU21D;51701;45.036;38.924;2022-08-20T15:51:24;26.81;72.34
65122;HTU21D;51701;45.036;38.924;2022-08-20T15:54:05;26.96;71.63
65122;HTU21D;51701;45.036;38.924;2022-08-20T15:56:47;27.10;70.74
65122;HTU21D;51701;45.036;38.924;2022-08-20T16:06:59;27.63;68.43
65122;HTU21D;51701;45.036;38.924;2022-08-20T16:14:24;27.90;67.41
65122;HTU21D;51701;45.036;38.924;2022-08-20T16:16:56;27.96;67.16
65122;HTU21D;51701;45.036;38.924;2022-08-20T16:19:23;27.96;66.94
65122;HTU21D;51701;45.036;38.924;2022-08-20T16:21:50;27.96;67.07
65122;HTU21D;51701;45.036;38.924;2022-08-20T16:24:17;28.00;66.94
65122;HTU21D;51701;45.036;38.924;2022-08-20T16:34:26;27.91;66.91
65122;HTU21D;51701;45.036;38.924;2022-08-20T16:39:30;27.95;66.85
65122;HTU21D;51701;45.036;38.924;2022-08-20T16:42:00;27.96;66.81
65122;HTU21D;51701;45.036;38.924;2022-08-20T16:44:31;27.97;66.76
65122;HTU21D;51701;45.036;38.924;2022-08-20T16:47:00;27.87;66.79
65122;HTU21D;51701;45.036;38.924;2022-08-20T16:49:27;27.79;66.85
65122;HTU21D;51701;45.036;38.924;2022-08-20T16:51:54;27.71;66.90
65122;HTU21D;51701;45.036;38.924;2022-08-20T16:54:20;27.69;67.04
65122;HTU21D;51701;45.036;38.924;2022-08-20T16:57:48;27.61;67.01
65122;HTU21D;51701;45.036;38.924;2022-08-20T17:00:31;27.59;66.98
65122;HTU21D;51701;45.036;38.924;2022-08-20T17:23:37;27.50;67.31
65122;HTU21D;51701;45.036;38.924;2022-08-20T17:26:04;27.47;67.54
65122;HTU21D;51701;45.036;38.924;2022-08-20T17:28:39;27.46;67.64
65122;HTU21D;51701;45.036;38.924;2022-08-20T17:31:17;27.46;67.38
65122;HTU21D;51701;45.036;38.924;2022-08-20T17:33:43;27.42;67.34
65122;HTU21D;51701;45.036;38.924;2022-08-20T17:36:15;27.39;67.34
65122;HTU21D;51701;45.036;38.924;2022-08-20T17:38:55;27.35;67.49
65122;HTU21D;51701;45.036;38.924;2022-08-20T17:44:04;27.28;67.73
65122;HTU21D;51701;45.036;38.924;2022-08-20T17:46:40;27.26;67.72
65122;HTU21D;51701;45.036;38.924;2022-08-20T17:49:07;27.23;68.09
65122;HTU21D;51701;45.036;38.924;2022-08-20T17:51:40;27.23;67.78
65122;HTU21D;51701;45.036;38.924;2022-08-20T17:54:14;27.22;67.76
65122;HTU21D;51701;45.036;38.924;2022-08-20T17:56:41;27.24;68.62
65122;HTU21D;51701;45.036;38.924;2022-08-20T17:59:16;27.23;68.26
65122;HTU21D;51701;45.036;38.924;2022-08-20T18:01:42;27.23;68.01
65122;HTU21D;51701;45.036;38.924;2022-08-20T18:04:08;27.21;68.39
65122;HTU21D;51701;45.036;38.924;2022-08-20T18:09:35;27.16;68.67
65122;HTU21D;51701;45.036;38.924;2022-08-20T18:12:12;27.15;68.77
65122;HTU21D;51701;45.036;38.924;2022-08-20T18:14:42;27.13;68.90
65122;HTU21D;51701;45.036;38.924;2022-08-20T18:19:53;27.14;70.16
65122;HTU21D;51701;45.036;38.924;2022-08-20T18:25:39;27.21;71.25
65122;HTU21D;51701;45.036;38.924;2022-08-20T18:28:08;27.31;70.94
65122;HTU21D;51701;45.036;38.924;2022-08-20T18:30:45;27.40;71.59
65122;HTU21D;51701;45.036;38.924;2022-08-20T18:33:11;27.42;72.22
65122;HTU21D;51701;45.036;38.924;2022-08-20T18:35:38;27.42;71.45
65122;HTU21D;51701;45.036;38.924;2022-08-20T18:38:38;27.44;71.61
65122;HTU21D;51701;45.036;38.924;2022-08-20T18:44:01;27.42;72.19
65122;HTU21D;51701;45.036;38.924;2022-08-20T18:46:27;27.40;72.17
65122;HTU21D;51701;45.036;38.924;2022-08-20T18:48:54;27.43;72.77
65122;HTU21D;51701;45.036;38.924;2022-08-20T18:51:23;27.38;72.29
65122;HTU21D;51701;45.036;38.924;2022-08-20T18:53:50;27.37;72.91
65122;HTU21D;51701;45.036;38.924;2022-08-20T18:56:16;27.26;73.61
65122;HTU21D;51701;45.036;38.924;2022-08-20T18:58:53;27.25;73.02
65122;HTU21D;51701;45.036;38.924;2022-08-20T19:01:22;27.24;73.37
65122;HTU21D;51701;45.036;38.924;2022-08-20T19:03:49;27.21;74.16
65122;HTU21D;51701;45.036;38.924;2022-08-20T19:06:23;27.17;74.45
65122;HTU21D;51701;45.036;38.924;2022-08-20T19:09:08;27.19;74.46
65122;HTU21D;51701;45.036;38.924;2022-08-20T19:12:12;27.15;74.53
65122;HTU21D;51701;45.036;38.924;2022-08-20T19:17:10;27.15;74.54
65122;HTU21D;51701;45.036;38.924;2022-08-20T19:19:38;27.12;74.79
65122;HTU21D;51701;45.036;38.924;2022-08-20T19:22:04;27.12;74.58
65122;HTU21D;51701;45.036;38.924;2022-08-20T19:24:31;27.09;74.82
65122;HTU21D;51701;45.036;38.924;2022-08-20T19:27:02;27.04;75.70
65122;HTU21D;51701;45.036;38.924;2022-08-20T19:29:29;26.97;76.12
65122;HTU21D;51701;45.036;38.924;2022-08-20T19:31:57;26.99;75.85
65122;HTU21D;51701;45.036;38.924;2022-08-20T19:34:23;27.00;76.37
65122;HTU21D;51701;45.036;38.924;2022-08-20T19:36:58;26.92;76.18
65122;HTU21D;51701;45.036;38.924;2022-08-20T19:39:24;26.90;76.79
65122;HTU21D;51701;45.036;38.924;2022-08-20T19:41:58;26.86;76.24
65122;HTU21D;51701;45.036;38.924;2022-08-20T19:44:32;26.91;76.13
65122;HTU21D;51701;45.036;38.924;2022-08-20T19:46:59;26.94;76.02
65122;HTU21D;51701;45.036;38.924;2022-08-20T19:54:21;26.98;75.70
65122;HTU21D;51701;45.036;38.924;2022-08-20T19:56:47;26.99;75.82
65122;HTU21D;51701;45.036;38.924;2022-08-20T19:59:15;26.98;75.57
65122;HTU21D;51701;45.036;38.924;2022-08-20T20:01:49;26.96;75.98
65122;HTU21D;51701;45.036;38.924;2022-08-20T20:04:16;26.90;76.02
65122;HTU21D;51701;45.036;38.924;2022-08-20T20:06:43;26.91;75.94
65122;HTU21D;51701;45.036;38.924;2022-08-20T20:09:14;26.89;75.84
65122;HTU21D;51701;45.036;38.924;2022-08-20T20:11:54;26.85;76.10
65122;HTU21D;51701;45.036;38.924;2022-08-20T20:14:20;26.83;75.96
65122;HTU21D;51701;45.036;38.924;2022-08-20T20:16:48;26.83;75.99
65122;HTU21D;51701;45.036;38.924;2022-08-20T20:19:15;26.82;75.97
65122;HTU21D;51701;45.036;38.924;2022-08-20T20:21:43;26.85;75.88
65122;HTU21D;51701;45.036;38.924;2022-08-20T20:24:09;26.87;75.79
65122;HTU21D;51701;45.036;38.924;2022-08-20T20:26:37;26.84;75.89
65122;HTU21D;51701;45.036;38.924;2022-08-20T20:29:10;26.82;75.65
65122;HTU21D;51701;45.036;38.924;2022-08-20T20:34:25;26.78;76.02
65122;HTU21D;51701;45.036;38.924;2022-08-20T20:37:02;26.77;75.95
65122;HTU21D;51701;45.036;38.924;2022-08-20T20:39:32;26.81;75.92
65122;HTU21D;51701;45.036;38.924;2022-08-20T20:41:59;26.80;75.69
65122;HTU21D;51701;45.036;38.924;2022-08-20T20:44:27;26.80;75.39
65122;HTU21D;51701;45.036;38.924;2022-08-20T20:46:59;26.79;75.89
65122;HTU21D;51701;45.036;38.924;2022-08-20T20:52:02;26.69;75.89
65122;HTU21D;51701;45.036;38.924;2022-08-20T20:54:42;26.68;75.93
65122;HTU21D;51701;45.036;38.924;2022-08-20T20:59:44;26.68;75.90
65122;HTU21D;51701;45.036;38.924;2022-08-20T21:02:12;26.66;75.80
65122;HTU21D;51701;45.036;38.924;2022-08-20T21:04:38;26.60;76.05
65122;HTU21D;51701;45.036;38.924;2022-08-20T21:07:05;26.61;76.23
65122;HTU21D;51701;45.036;38.924;2022-08-20T21:09:31;26.61;76.25
65122;HTU21D;51701;45.036;38.924;2022-08-20T21:11:57;26.60;76.14
65122;HTU21D;51701;45.036;38.924;2022-08-20T21:14:23;26.60;76.54
65122;HTU21D;51701;45.036;38.924;2022-08-20T21:16:49;26.57;76.15
65122;HTU21D;51701;45.036;38.924;2022-08-20T21:19:15;26.49;76.20
65122;HTU21D;51701;45.036;38.924;2022-08-20T21:21:42;26.36;75.86
65122;HTU21D;51701;45.036;38.924;2022-08-20T21:24:08;26.23;77.66
65122;HTU21D;51701;45.036;38.924;2022-08-20T21:26:34;26.19;76.57
65122;HTU21D;51701;45.036;38.924;2022-08-20T21:29:00;26.13;75.95
65122;HTU21D;51701;45.036;38.924;2022-08-20T21:31:29;26.02;77.78
65122;HTU21D;51701;45.036;38.924;2022-08-20T21:33:55;25.98;76.50
65122;HTU21D;51701;45.036;38.924;2022-08-20T21:36:21;0.00;77.50
65122;HTU21D;51701;45.036;38.924;2022-08-20T21:38:47;25.89;77.17
65122;HTU21D;51701;45.036;38.924;2022-08-20T21:41:13;25.81;76.34
65122;HTU21D;51701;45.036;38.924;2022-08-20T21:43:39;0.00;78.56
65122;HTU21D;51701;45.036;38.924;2022-08-20T21:46:05;25.71;76.89
65122;HTU21D;51701;45.036;38.924;2022-08-20T21:48:33;25.66;79.48
65122;HTU21D;51701;45.036;38.924;2022-08-20T21:50:59;25.63;77.31
65122;HTU21D;51701;45.036;38.924;2022-08-20T21:53:25;25.59;78.93
65122;HTU21D;51701;45.036;38.924;2022-08-20T21:55:50;0.00;78.55
65122;HTU21D;51701;45.036;38.924;2022-08-20T21:58:16;0.00;79.09
65122;HTU21D;51701;45.036;38.924;2022-08-20T22:03:13;25.50;79.02
65122;HTU21D;51701;45.036;38.924;2022-08-20T22:05:38;25.48;80.76
65122;HTU21D;51701;45.036;38.924;2022-08-20T22:08:04;25.49;81.09
65122;HTU21D;51701;45.036;38.924;2022-08-20T22:10:30;25.47;78.87
65122;HTU21D;51701;45.036;38.924;2022-08-20T22:12:56;25.38;79.25
65122;HTU21D;51701;45.036;38.924;2022-08-20T22:15:21;25.44;79.62
65122;HTU21D;51701;45.036;38.924;2022-08-20T22:17:47;25.42;79.92
65122;HTU21D;51701;45.036;38.924;2022-08-20T22:20:13;25.43;79.98
65122;HTU21D;51701;45.036;38.924;2022-08-20T22:22:38;25.43;78.53
65122;HTU21D;51701;45.036;38.924;2022-08-20T22:25:04;25.43;79.95
65122;HTU21D;51701;45.036;38.924;2022-08-20T22:27:30;25.44;78.88
65122;HTU21D;51701;45.036;38.924;2022-08-20T22:29:56;25.37;80.00
65122;HTU21D;51701;45.036;38.924;2022-08-20T22:32:22;25.39;80.49
65122;HTU21D;51701;45.036;38.924;2022-08-20T22:34:48;25.33;79.38
65122;HTU21D;51701;45.036;38.924;2022-08-20T22:37:13;25.31;81.17
65122;HTU21D;51701;45.036;38.924;2022-08-20T22:39:39;25.25;79.97
65122;HTU21D;51701;45.036;38.924;2022-08-20T22:42:05;25.25;81.33
65122;HTU21D;51701;45.036;38.924;2022-08-20T22:44:31;25.20;80.04
65122;HTU21D;51701;45.036;38.924;2022-08-20T22:46:57;0.00;81.67
65122;HTU21D;51701;45.036;38.924;2022-08-20T22:49:25;25.16;80.43
65122;HTU21D;51701;45.036;38.924;2022-08-20T22:51:51;25.10;81.36
65122;HTU21D;51701;45.036;38.924;2022-08-20T22:54:18;25.13;80.44
65122;HTU21D;51701;45.036;38.924;2022-08-20T22:56:44;25.06;81.23
65122;HTU21D;51701;45.036;38.924;2022-08-20T22:59:10;25.08;80.04
65122;HTU21D;51701;45.036;38.924;2022-08-20T23:01:39;25.03;81.41
65122;HTU21D;51701;45.036;38.924;2022-08-20T23:04:27;25.02;80.55
65122;HTU21D;51701;45.036;38.924;2022-08-20T23:06:51;24.97;80.34
65122;HTU21D;51701;45.036;38.924;2022-08-20T23:09:16;24.98;81.81
65122;HTU21D;51701;45.036;38.924;2022-08-20T23:11:42;24.94;80.42
65122;HTU21D;51701;45.036;38.924;2022-08-20T23:14:08;0.00;82.57
65122;HTU21D;51701;45.036;38.924;2022-08-20T23:16:34;24.94;80.51
65122;HTU21D;51701;45.036;38.924;2022-08-20T23:19:00;24.94;80.91
65122;HTU21D;51701;45.036;38.924;2022-08-20T23:21:26;24.99;80.19
65122;HTU21D;51701;45.036;38.924;2022-08-20T23:23:52;24.94;81.84
65122;HTU21D;51701;45.036;38.924;2022-08-20T23:26:19;24.95;81.46
65122;HTU21D;51701;45.036;38.924;2022-08-20T23:28:45;24.95;82.09
65122;HTU21D;51701;45.036;38.924;2022-08-20T23:31:11;24.99;84.32
65122;HTU21D;51701;45.036;38.924;2022-08-20T23:33:37;24.99;83.49
65122;HTU21D;51701;45.036;38.924;2022-08-20T23:36:03;24.98;84.79
65122;HTU21D;51701;45.036;38.924;2022-08-20T23:38:29;24.99;84.51
65122;HTU21D;51701;45.036;38.924;2022-08-20T23:40:55;25.00;84.82
65122;HTU21D;51701;45.036;38.924;2022-08-20T23:43:21;0.00;83.81
65122;HTU21D;51701;45.036;38.924;2022-08-20T23:45:47;24.93;84.82
65122;HTU21D;51701;45.036;38.924;2022-08-20T23:48:12;24.89;85.11
65122;HTU21D;51701;45.036;38.924;2022-08-20T23:50:38;24.84;84.86
65122;HTU21D;51701;45.036;38.924;2022-08-20T23:53:04;24.80;84.90
65122;HTU21D;51701;45.036;38.924;2022-08-20T23:55:30;24.78;84.15
65122;HTU21D;51701;45.036;38.924;2022-08-20T23:57:56;24.74;84.74
